Time;durP1;ratioP1;P1;durP2;ratioP2;P2;SDS_P1;SDS_P2;PMS_P1;PMS_P2;Temp;Humidity;BMP_temperature;BMP_pressure;BME280_temperature;BME280_humidity;BME280_pressure;Samples;Min_cycle;Max_cycle;Signal;HPM_P1;HPM_P2
2022/08/02 00:00:20;;;;;;;3.20;2.63;;;15.50;99.90;;;;;;8332251;28;20026;-81
2022/08/02 00:04:20;;;;;;;3.88;2.42;;;15.50;99.90;;;;;;8353215;28;20082;-81
2022/08/02 00:08:21;;;;;;;4.03;3.17;;;15.50;99.90;;;;;;8340953;28;20041;-82
2022/08/02 00:12:22;;;;;;;5.30;3.00;;;15.50;99.90;;;;;;8337775;28;20025;-82
2022/08/02 00:16:22;;;;;;;5.22;3.20;;;15.50;99.90;;;;;;8339217;28;20032;-81
2022/08/02 00:20:23;;;;;;;6.10;3.30;;;15.50;99.90;;;;;;8327428;28;20018;-82
2022/08/02 00:24:24;;;;;;;3.92;2.60;;;15.50;99.90;;;;;;8340549;28;20024;-80
2022/08/02 00:28:25;;;;;;;4.95;2.70;;;15.40;99.90;;;;;;8343452;28;20028;-81
2022/08/02 00:32:25;;;;;;;6.10;2.55;;;15.40;99.90;;;;;;8341540;28;20108;-81
2022/08/02 00:36:26;;;;;;;4.00;2.85;;;15.30;99.90;;;;;;8342132;28;20021;-81
2022/08/02 00:40:26;;;;;;;15.75;3.30;;;15.20;99.90;;;;;;8330994;28;20052;-82
2022/08/02 00:44:27;;;;;;;4.30;3.13;;;15.10;99.90;;;;;;8339090;28;20036;-81
2022/08/02 00:48:27;;;;;;;5.03;3.13;;;14.80;99.90;;;;;;8341737;28;20045;-81
2022/08/02 00:52:28;;;;;;;5.60;3.08;;;14.60;99.90;;;;;;8339836;28;20036;-80
2022/08/02 00:56:29;;;;;;;9.68;3.40;;;14.50;99.90;;;;;;8337695;28;20032;-80
2022/08/02 01:00:29;;;;;;;7.90;3.85;;;14.60;99.90;;;;;;8345084;28;20024;-81
2022/08/02 01:04:30;;;;;;;7.05;3.65;;;14.40;99.90;;;;;;8335448;28;20028;-81
2022/08/02 01:08:30;;;;;;;6.35;3.35;;;14.50;99.90;;;;;;8335232;28;20021;-81
2022/08/02 01:12:31;;;;;;;5.78;3.42;;;14.50;99.90;;;;;;8334592;28;20021;-82
2022/08/02 01:16:36;;;;;;;18.90;4.53;;;14.40;99.90;;;;;;8337452;28;20035;-81
2022/08/02 01:21:08;;;;;;;6.00;3.72;;;14.40;99.90;;;;;;8345521;28;20052;-79
2022/08/02 01:25:24;;;;;;;;;;;14.40;99.90;;;;;;8340526;28;20036;-81
2022/08/02 01:29:34;;;;;;;8.50;4.72;;;14.30;99.90;;;;;;8337008;28;19958;-80
2022/08/02 01:33:42;;;;;;;13.73;3.92;;;14.30;99.90;;;;;;8330100;28;20083;-81
2022/08/02 01:37:56;;;;;;;7.97;3.53;;;14.50;99.90;;;;;;8330530;28;20022;-80
2022/08/02 01:41:58;;;;;;;12.50;4.70;;;14.20;99.90;;;;;;8329136;28;20489;-81
2022/08/02 01:46:00;;;;;;;13.75;4.20;;;14.20;99.90;;;;;;8355390;28;20032;-82
2022/08/02 01:50:02;;;;;;;12.35;3.85;;;14.10;99.90;;;;;;8335506;28;20030;-81
2022/08/02 01:54:03;;;;;;;9.80;4.97;;;14.10;99.90;;;;;;8349297;28;20025;-80
2022/08/02 01:58:05;;;;;;;9.93;4.95;;;13.80;99.90;;;;;;8348509;28;20544;-80
2022/08/02 02:02:08;;;;;;;12.43;5.28;;;13.90;99.90;;;;;;8342041;28;20225;-80
2022/08/02 02:06:10;;;;;;;15.38;5.80;;;13.90;99.90;;;;;;8345778;28;20381;-80
2022/08/02 02:10:13;;;;;;;11.40;5.93;;;13.80;99.90;;;;;;8339379;28;20063;-80
2022/08/02 02:14:16;;;;;;;10.10;6.25;;;13.80;99.90;;;;;;8352546;28;20481;-81
2022/08/02 02:18:24;;;;;;;11.82;5.90;;;13.80;99.90;;;;;;8345743;28;20481;-79
2022/08/02 02:22:25;;;;;;;21.20;5.32;;;13.90;99.90;;;;;;8338286;28;20470;-80
2022/08/02 02:26:27;;;;;;;90.00;6.45;;;13.80;99.90;;;;;;8351684;28;20025;-81
2022/08/02 02:30:30;;;;;;;33.83;5.00;;;13.70;99.90;;;;;;8339440;28;20022;-80
2022/08/02 02:34:39;;;;;;;12.38;4.68;;;13.40;99.90;;;;;;8347393;28;20021;-80
2022/08/02 02:38:41;;;;;;;11.52;4.75;;;13.40;99.90;;;;;;8337570;28;20399;-81
2022/08/02 02:42:43;;;;;;;13.23;6.03;;;13.30;99.90;;;;;;8342612;28;20021;-80
2022/08/02 02:46:46;;;;;;;16.58;6.97;;;13.30;99.90;;;;;;8357868;28;20025;-80
2022/08/02 02:50:48;;;;;;;15.57;6.93;;;13.40;99.90;;;;;;8325433;28;20033;-80
2022/08/02 02:54:50;;;;;;;20.30;6.63;;;13.40;99.90;;;;;;8345666;28;20035;-81
2022/08/02 02:58:53;;;;;;;17.35;5.72;;;13.30;99.90;;;;;;8344028;28;20052;-81
2022/08/02 03:02:54;;;;;;;18.05;6.50;;;13.20;99.90;;;;;;8347453;28;20552;-80
2022/08/02 03:06:54;;;;;;;14.15;7.18;;;13.10;99.90;;;;;;8339836;28;20037;-80
2022/08/02 03:10:56;;;;;;;13.93;6.75;;;13.20;99.90;;;;;;8348294;28;20503;-80
2022/08/02 03:14:58;;;;;;;16.42;7.65;;;13.20;99.90;;;;;;8352011;28;20116;-80
2022/08/02 03:19:02;;;;;;;25.83;7.78;;;13.30;99.90;;;;;;8345897;28;20141;-81
2022/08/02 03:23:02;;;;;;;48.22;7.07;;;13.40;99.90;;;;;;8340356;28;20083;-80
2022/08/02 03:27:03;;;;;;;210.80;9.90;;;13.40;99.90;;;;;;8338706;28;20055;-80
2022/08/02 03:31:03;;;;;;;10.90;5.32;;;13.40;99.90;;;;;;8345673;28;20496;-80
2022/08/02 03:35:06;;;;;;;13.98;6.28;;;13.20;99.90;;;;;;8329587;28;20507;-80
2022/08/02 03:39:07;;;;;;;113.07;5.45;;;13.10;99.90;;;;;;8339506;28;20052;-80
2022/08/02 03:43:08;;;;;;;36.28;4.70;;;13.30;99.90;;;;;;8345051;28;20017;-80
2022/08/02 03:47:11;;;;;;;56.45;6.63;;;13.20;99.90;;;;;;8348305;28;20029;-80
2022/08/02 03:51:12;;;;;;;55.15;9.40;;;13.20;99.90;;;;;;8337559;28;20036;-80
2022/08/02 03:55:13;;;;;;;24.48;8.65;;;13.20;99.90;;;;;;8338355;28;20052;-80
2022/08/02 03:59:14;;;;;;;36.72;6.82;;;13.10;99.90;;;;;;8336902;28;20025;-79
2022/08/02 04:03:14;;;;;;;16.90;7.80;;;12.90;99.90;;;;;;8331239;28;20041;-80
2022/08/02 04:07:15;;;;;;;12.73;7.72;;;13.00;99.90;;;;;;8339918;28;20021;-80
2022/08/02 04:11:30;;;;;;;12.57;7.15;;;13.00;99.90;;;;;;8347063;28;20021;-80
2022/08/02 04:15:31;;;;;;;10.07;5.60;;;13.10;99.90;;;;;;8339058;28;20067;-80
2022/08/02 04:19:44;;;;;;;11.25;6.90;;;13.00;99.90;;;;;;8336003;28;20017;-80
2022/08/02 04:23:47;;;;;;;12.63;5.88;;;13.20;99.90;;;;;;8333752;28;20029;-80
2022/08/02 04:27:48;;;;;;;9.55;5.15;;;13.30;99.90;;;;;;8326893;28;20040;-80
2022/08/02 04:31:49;;;;;;;9.07;5.55;;;13.40;99.90;;;;;;8333648;28;20025;-80
2022/08/02 04:35:50;;;;;;;15.75;5.05;;;13.40;99.90;;;;;;8336113;28;20156;-80
2022/08/02 04:39:50;;;;;;;10.13;5.20;;;13.40;99.90;;;;;;8334769;28;20048;-80
2022/08/02 04:43:51;;;;;;;18.92;4.78;;;13.50;99.90;;;;;;8339224;28;20068;-80
2022/08/02 04:47:52;;;;;;;11.68;4.38;;;13.60;99.90;;;;;;8339140;28;20041;-80
2022/08/02 04:51:52;;;;;;;8.18;4.18;;;13.70;99.90;;;;;;8330885;28;20037;-80
2022/08/02 04:55:53;;;;;;;16.15;7.60;;;13.80;99.90;;;;;;8333852;28;20548;-80
2022/08/02 04:59:54;;;;;;;12.80;7.60;;;14.00;99.90;;;;;;8334123;28;20021;-80
2022/08/02 05:03:55;;;;;;;5.70;4.20;;;14.30;99.90;;;;;;8339523;28;20480;-80
2022/08/02 05:07:55;;;;;;;5.18;3.72;;;14.60;99.90;;;;;;8339790;28;20170;-80
2022/08/02 05:11:56;;;;;;;4.72;3.58;;;14.60;99.90;;;;;;8332006;28;20028;-80
2022/08/02 05:16:00;;;;;;;7.95;4.25;;;14.70;99.90;;;;;;8333206;28;20025;-81
2022/08/02 05:20:00;;;;;;;6.13;4.07;;;15.00;99.90;;;;;;8330679;28;20063;-81
2022/08/02 05:24:01;;;;;;;4.00;3.30;;;15.20;99.90;;;;;;8330401;28;20116;-81
2022/08/02 05:28:01;;;;;;;4.63;4.13;;;15.40;99.90;;;;;;8333637;28;20381;-81
2022/08/02 05:32:02;;;;;;;4.72;3.95;;;15.40;99.90;;;;;;8330874;28;20112;-81
2022/08/02 05:36:03;;;;;;;7.53;3.85;;;15.60;99.90;;;;;;8336955;28;20029;-81
2022/08/02 05:40:04;;;;;;;4.53;3.80;;;15.70;99.90;;;;;;8334739;28;20171;-81
2022/08/02 05:44:04;;;;;;;5.60;3.50;;;16.10;99.90;;;;;;8335506;28;20079;-81
2022/08/02 05:48:05;;;;;;;5.85;3.85;;;16.40;99.90;;;;;;8332582;28;20038;-82
2022/08/02 05:52:14;;;;;;;5.85;3.78;;;16.70;99.90;;;;;;8333770;28;20025;-82
2022/08/02 05:56:44;;;;;;;5.45;4.43;;;17.10;99.90;;;;;;8331148;28;20466;-82
2022/08/02 06:00:48;;;;;;;4.60;4.03;;;17.50;99.90;;;;;;8335094;28;20026;-82
2022/08/02 06:05:01;;;;;;;5.40;3.53;;;17.80;99.90;;;;;;8326471;28;20115;-83
2022/08/02 06:09:23;;;;;;;5.55;3.88;;;19.10;99.90;;;;;;8334143;28;20116;-81
2022/08/02 06:13:25;;;;;;;3.28;2.97;;;19.90;99.90;;;;;;8333042;28;20547;-82
2022/08/02 06:17:26;;;;;;;5.75;3.17;;;20.70;99.90;;;;;;8335472;28;20053;-83
2022/08/02 06:21:27;;;;;;;3.47;2.67;;;21.20;99.90;;;;;;8348184;28;20413;-82
2022/08/02 06:25:29;;;;;;;4.03;2.58;;;22.10;99.90;;;;;;8333784;28;20467;-83
2022/08/02 06:29:31;;;;;;;3.65;2.90;;;22.50;99.90;;;;;;8335231;28;20095;-83
2022/08/02 06:33:32;;;;;;;8.18;2.67;;;23.10;99.90;;;;;;8337431;28;20017;-83
2022/08/02 06:37:57;;;;;;;8.10;2.67;;;22.90;99.90;;;;;;8344701;28;20031;-83
2022/08/02 06:42:06;;;;;;;3.55;2.70;;;23.30;99.90;;;;;;8344198;28;20032;-83
2022/08/02 06:46:06;;;;;;;6.75;3.00;;;23.50;99.90;;;;;;8343656;28;20543;-83
2022/08/02 06:50:08;;;;;;;4.32;2.53;;;23.90;99.90;;;;;;8344344;28;20030;-83
2022/08/02 06:54:09;;;;;;;3.95;2.83;;;24.40;99.90;;;;;;8342531;28;20504;-83
2022/08/02 06:58:10;;;;;;;3.38;2.78;;;24.50;99.90;;;;;;8344168;28;20047;-82
2022/08/02 07:02:11;;;;;;;6.35;2.47;;;24.30;99.90;;;;;;8350757;28;20021;-82
2022/08/02 07:06:11;;;;;;;4.32;2.35;;;23.90;99.90;;;;;;8346492;28;20027;-82
2022/08/02 07:10:13;;;;;;;4.25;2.70;;;23.80;99.90;;;;;;8338798;28;20021;-82
2022/08/02 07:14:14;;;;;;;3.08;2.13;;;23.80;99.90;;;;;;8334903;28;20475;-82
2022/08/02 07:18:16;;;;;;;2.88;2.25;;;24.30;99.90;;;;;;8333645;28;20079;-82
2022/08/02 07:22:18;;;;;;;5.22;2.33;;;24.50;99.90;;;;;;8332744;28;20371;-82
2022/08/02 07:26:18;;;;;;;3.97;2.25;;;24.90;99.90;;;;;;8331955;28;20037;-82
2022/08/02 07:30:19;;;;;;;4.38;2.30;;;25.10;99.90;;;;;;8329518;28;20037;-81
2022/08/02 07:34:19;;;;;;;3.75;2.20;;;25.40;99.90;;;;;;8335285;28;20112;-81
2022/08/02 07:38:23;;;;;;;3.03;2.28;;;25.60;99.90;;;;;;8331747;28;20022;-81
2022/08/02 07:42:24;;;;;;;4.72;2.20;;;26.00;99.90;;;;;;8333425;28;20025;-86
2022/08/02 07:46:24;;;;;;;6.03;2.30;;;26.00;99.90;;;;;;8334051;28;20048;-86
2022/08/02 07:50:27;;;;;;;2.80;2.35;;;26.60;99.90;;;;;;8333186;28;20029;-85
2022/08/02 07:54:27;;;;;;;2.53;1.80;;;27.10;99.90;;;;;;8326032;28;20029;-85
2022/08/02 07:58:28;;;;;;;5.13;2.05;;;26.90;99.90;;;;;;8326851;28;20013;-84
2022/08/02 08:02:28;;;;;;;2.83;2.38;;;27.20;99.90;;;;;;8339885;28;20101;-85
2022/08/02 08:06:29;;;;;;;4.43;1.77;;;26.90;99.90;;;;;;8330029;28;20512;-84
2022/08/02 08:10:31;;;;;;;3.63;2.10;;;26.40;99.90;;;;;;8335902;28;20029;-84
2022/08/02 08:14:31;;;;;;;3.97;2.03;;;26.20;99.90;;;;;;8339009;28;20076;-85
2022/08/02 08:18:32;;;;;;;3.85;2.17;;;26.00;99.90;;;;;;8331248;28;20116;-84
2022/08/02 08:22:32;;;;;;;3.70;2.10;;;26.50;99.90;;;;;;8325156;28;20033;-84
2022/08/02 08:26:33;;;;;;;3.03;1.90;;;26.30;99.90;;;;;;8325161;28;20075;-80
2022/08/02 08:30:34;;;;;;;2.60;1.63;;;26.40;99.90;;;;;;8331215;28;20032;-80
2022/08/02 08:34:34;;;;;;;3.80;1.98;;;26.10;99.90;;;;;;8330989;28;20498;-81
2022/08/02 08:38:35;;;;;;;3.90;1.80;;;26.20;99.90;;;;;;8326786;28;20022;-81
2022/08/02 08:42:37;;;;;;;4.03;2.20;;;26.00;99.90;;;;;;8333628;28;20025;-81
2022/08/02 08:46:42;;;;;;;3.10;1.85;;;26.60;99.90;;;;;;8325457;28;20030;-80
2022/08/02 08:50:56;;;;;;;3.03;2.20;;;26.90;99.90;;;;;;8329228;28;20088;-81
2022/08/02 08:54:57;;;;;;;3.88;2.13;;;26.60;99.90;;;;;;8321353;28;20040;-81
2022/08/02 08:58:57;;;;;;;3.20;1.67;;;26.20;99.90;;;;;;8330501;28;20500;-80
2022/08/02 09:03:01;;;;;;;3.55;1.73;;;26.20;99.90;;;;;;8315623;28;20029;-81
2022/08/02 09:07:02;;;;;;;3.20;1.60;;;26.00;99.90;;;;;;8345162;28;20040;-81
2022/08/02 09:11:15;;;;;;;4.00;1.70;;;26.60;99.90;;;;;;8328488;28;20112;-80
2022/08/02 09:15:24;;;;;;;2.55;1.33;;;26.40;99.90;;;;;;8324259;28;20029;-81
2022/08/02 09:19:25;;;;;;;2.35;1.40;;;26.30;99.90;;;;;;8328215;28;20025;-80
2022/08/02 09:23:37;;;;;;;1.95;1.58;;;26.00;99.90;;;;;;8324416;28;20022;-80
2022/08/02 09:27:38;;;;;;;1.65;1.55;;;26.20;99.90;;;;;;8317684;28;20032;-80
2022/08/02 09:31:39;;;;;;;1.58;1.40;;;26.60;99.90;;;;;;8324341;28;20032;-79
2022/08/02 09:35:40;;;;;;;1.92;1.30;;;26.60;99.90;;;;;;8326175;28;20040;-80
2022/08/02 09:39:44;;;;;;;1.40;1.23;;;26.20;99.90;;;;;;8325771;28;20044;-79
2022/08/02 09:43:44;;;;;;;1.40;1.30;;;25.90;99.90;;;;;;8335498;28;20048;-79
2022/08/02 09:47:48;;;;;;;2.75;1.50;;;25.90;99.90;;;;;;8333487;28;20053;-79
2022/08/02 09:51:50;;;;;;;2.17;1.38;;;26.20;99.90;;;;;;8316306;28;20037;-79
2022/08/02 09:55:55;;;;;;;1.40;1.30;;;26.80;99.90;;;;;;8320086;28;20041;-80
2022/08/02 09:59:56;;;;;;;1.75;1.50;;;26.60;99.90;;;;;;8322977;28;20049;-80
2022/08/02 10:04:03;;;;;;;1.27;1.17;;;26.50;99.90;;;;;;8324820;28;20508;-79
2022/08/02 10:08:04;;;;;;;1.55;1.23;;;26.30;99.90;;;;;;8331253;28;20029;-79
2022/08/02 10:12:05;;;;;;;1.20;1.10;;;26.40;99.90;;;;;;8322427;28;20571;-80
2022/08/02 10:16:06;;;;;;;2.30;1.50;;;27.00;99.90;;;;;;8334963;28;20045;-80
2022/08/02 10:20:07;;;;;;;1.40;1.30;;;26.80;99.90;;;;;;8302552;28;1028649;-79
2022/08/02 10:24:09;;;;;;;1.77;1.50;;;26.60;99.90;;;;;;8328165;28;20022;-79
2022/08/02 10:28:11;;;;;;;1.52;1.15;;;27.00;99.90;;;;;;8333215;28;20540;-78
2022/08/02 10:32:35;;;;;;;1.55;1.30;;;27.20;99.90;;;;;;8331643;28;20051;-79
2022/08/02 10:36:38;;;;;;;1.30;1.15;;;27.10;99.90;;;;;;8331147;28;20029;-79
2022/08/02 10:40:53;;;;;;;2.88;1.35;;;27.30;99.90;;;;;;8335859;28;20403;-78
2022/08/02 10:45:09;;;;;;;1.58;1.10;;;28.30;99.90;;;;;;8329569;28;20111;-79
2022/08/02 10:49:14;;;;;;;1.85;1.20;;;29.50;99.90;;;;;;8340278;28;20028;-79
2022/08/02 10:53:19;;;;;;;2.00;1.13;;;30.30;99.90;;;;;;8331276;28;20026;-80
2022/08/02 10:57:23;;;;;;;2.47;1.20;;;30.80;99.90;;;;;;8315321;28;20036;-79
2022/08/02 11:01:34;;;;;;;1.17;1.08;;;30.40;99.90;;;;;;8337125;28;20084;-80
2022/08/02 11:05:34;;;;;;;1.55;1.15;;;31.10;99.90;;;;;;8332428;28;20028;-80
2022/08/02 11:09:35;;;;;;;1.58;1.27;;;32.20;99.90;;;;;;8336894;28;20033;-79
2022/08/02 11:13:58;;;;;;;1.60;1.23;;;32.60;94.50;;;;;;8341779;28;20025;-80
2022/08/02 11:17:58;;;;;;;2.15;1.20;;;33.00;95.10;;;;;;8328780;28;20029;-80
2022/08/02 11:22:06;;;;;;;1.85;1.20;;;33.20;91.20;;;;;;8335028;28;20060;-80
2022/08/02 11:26:29;;;;;;;1.48;1.20;;;33.20;89.20;;;;;;8332513;28;20064;-80
2022/08/02 11:30:29;;;;;;;1.90;1.13;;;32.90;91.10;;;;;;8329213;28;20129;-79
2022/08/02 11:34:32;;;;;;;3.90;1.30;;;32.50;85.50;;;;;;8297815;28;20386;-79
2022/08/02 11:38:33;;;;;;;1.85;1.38;;;32.00;87.90;;;;;;8318968;28;20041;-79
2022/08/02 11:42:35;;;;;;;1.45;1.30;;;32.80;90.00;;;;;;8314405;28;20018;-79
2022/08/02 11:46:36;;;;;;;1.60;1.50;;;33.30;85.90;;;;;;8296574;28;20116;-79
2022/08/02 11:50:36;;;;;;;2.92;1.30;;;32.70;86.90;;;;;;8327758;28;20124;-80
2022/08/02 11:54:40;;;;;;;1.85;1.10;;;33.00;84.50;;;;;;8326084;28;20382;-79
2022/08/02 11:58:40;;;;;;;1.63;1.30;;;32.90;89.80;;;;;;8330471;28;20022;-78
2022/08/02 12:02:46;;;;;;;2.10;1.30;;;32.90;84.30;;;;;;8331506;28;20030;-79
2022/08/02 12:06:56;;;;;;;1.73;1.30;;;32.90;90.70;;;;;;8335862;28;20037;-79
2022/08/02 12:10:59;;;;;;;1.55;1.27;;;31.90;88.50;;;;;;8324893;28;20622;-79
2022/08/02 12:15:00;;;;;;;1.45;1.33;;;32.40;88.80;;;;;;8331438;28;20075;-79
2022/08/02 12:19:18;;;;;;;1.92;1.30;;;32.20;89.30;;;;;;8333294;28;20087;-80
2022/08/02 12:23:19;;;;;;;1.60;1.40;;;33.70;85.40;;;;;;8338665;28;20026;-79
2022/08/02 12:27:37;;;;;;;1.48;1.20;;;33.90;84.00;;;;;;8337468;28;20097;-80
2022/08/02 12:31:48;;;;;;;3.38;1.35;;;33.90;76.60;;;;;;8341957;28;20080;-79
2022/08/02 12:35:49;;;;;;;1.88;1.20;;;34.20;75.60;;;;;;8333205;28;20029;-78
2022/08/02 12:39:50;;;;;;;1.88;1.40;;;33.80;77.30;;;;;;8334166;28;20488;-79
2022/08/02 12:43:51;;;;;;;1.73;1.20;;;33.80;83.00;;;;;;8334018;28;20032;-79
2022/08/02 12:47:55;;;;;;;1.30;1.20;;;33.40;85.50;;;;;;8337178;28;20491;-80
2022/08/02 12:51:56;;;;;;;2.60;1.17;;;34.10;76.90;;;;;;8329722;28;20511;-80
2022/08/02 12:55:57;;;;;;;1.27;1.17;;;35.10;75.40;;;;;;8338222;28;20040;-78
2022/08/02 12:59:58;;;;;;;1.98;1.20;;;34.00;77.00;;;;;;8339838;28;20028;-79
2022/08/02 13:03:58;;;;;;;1.02;1.00;;;35.30;77.40;;;;;;8328921;28;20113;-79
2022/08/02 13:07:59;;;;;;;1.10;1.00;;;36.80;67.40;;;;;;8321234;28;20033;-80
2022/08/02 13:11:59;;;;;;;2.78;1.00;;;37.90;61.40;;;;;;8330908;28;20162;-81
2022/08/02 13:16:00;;;;;;;1.63;1.00;;;39.30;56.60;;;;;;8328795;28;20029;-80
2022/08/02 13:20:01;;;;;;;1.40;1.20;;;39.10;57.00;;;;;;8326594;28;20044;-81
2022/08/02 13:24:01;;;;;;;1.20;1.10;;;39.50;56.40;;;;;;8329621;28;20119;-80
2022/08/02 13:28:02;;;;;;;1.30;1.20;;;39.10;58.20;;;;;;8334536;28;20032;-80
2022/08/02 13:32:02;;;;;;;1.17;1.08;;;37.30;61.80;;;;;;8318939;28;20032;-81
2022/08/02 13:36:03;;;;;;;1.30;1.20;;;38.50;56.30;;;;;;8329825;28;20106;-81
2022/08/02 13:40:04;;;;;;;3.10;0.88;;;39.80;53.50;;;;;;8329383;28;20100;-81
2022/08/02 13:44:05;;;;;;;1.30;0.80;;;40.20;50.30;;;;;;8344761;28;20445;-81
2022/08/02 13:48:06;;;;;;;1.30;1.08;;;41.20;47.50;;;;;;8347414;28;20034;-81
2022/08/02 13:52:06;;;;;;;2.13;1.00;;;40.60;48.50;;;;;;8340649;28;20112;-80
2022/08/02 13:56:07;;;;;;;1.40;0.98;;;39.70;46.70;;;;;;8330471;28;20025;-80
2022/08/02 14:00:09;;;;;;;1.15;1.05;;;38.40;49.90;;;;;;8332054;28;20013;-80
2022/08/02 14:04:09;;;;;;;1.08;0.98;;;38.80;52.60;;;;;;8333361;28;20029;-81
2022/08/02 14:08:10;;;;;;;1.50;1.08;;;39.50;50.70;;;;;;8342628;28;20033;-81
2022/08/02 14:12:11;;;;;;;2.53;0.95;;;38.40;52.20;;;;;;8342997;28;20109;-81
2022/08/02 14:16:12;;;;;;;1.20;0.90;;;38.10;50.40;;;;;;8321574;28;20022;-81
2022/08/02 14:20:13;;;;;;;1.90;1.00;;;39.20;49.00;;;;;;8316587;28;20033;-80
2022/08/02 14:24:15;;;;;;;0.98;0.82;;;38.50;52.20;;;;;;8328889;28;20040;-81
2022/08/02 14:28:15;;;;;;;1.35;0.82;;;38.20;51.00;;;;;;8333618;28;20021;-80
2022/08/02 14:32:16;;;;;;;1.10;0.80;;;36.90;52.80;;;;;;8327374;28;20484;-80
2022/08/02 14:36:17;;;;;;;1.02;0.80;;;37.00;53.00;;;;;;8333784;28;20422;-80
2022/08/02 14:40:17;;;;;;;1.10;1.00;;;38.80;48.40;;;;;;8339483;28;20370;-80
2022/08/02 14:44:18;;;;;;;1.13;0.90;;;38.80;49.10;;;;;;8339429;28;20014;-81
2022/08/02 14:48:18;;;;;;;1.70;1.23;;;38.10;50.40;;;;;;8335366;28;20017;-79
2022/08/02 14:52:19;;;;;;;0.98;0.88;;;36.80;52.20;;;;;;8336468;28;20431;-79
2022/08/02 14:56:19;;;;;;;1.30;1.00;;;35.50;56.40;;;;;;8350253;28;20029;-80
2022/08/02 15:00:20;;;;;;;1.10;1.00;;;38.20;53.20;;;;;;8342042;28;20025;-80
2022/08/02 15:04:20;;;;;;;1.20;1.00;;;38.30;48.20;;;;;;8342177;28;20056;-79
2022/08/02 15:08:21;;;;;;;2.08;1.10;;;38.00;50.40;;;;;;8341757;28;20025;-80
2022/08/02 15:12:22;;;;;;;1.92;1.00;;;39.10;47.90;;;;;;8351823;28;20021;-80
2022/08/02 15:16:22;;;;;;;0.95;0.88;;;39.40;47.70;;;;;;8358773;28;20096;-80
2022/08/02 15:20:23;;;;;;;1.20;0.90;;;39.60;46.40;;;;;;8349367;28;20029;-80
2022/08/02 15:24:24;;;;;;;1.55;0.95;;;39.80;45.40;;;;;;8330206;28;20025;-81
2022/08/02 15:28:24;;;;;;;1.65;0.93;;;39.70;47.30;;;;;;8339095;28;20033;-80
2022/08/02 15:32:25;;;;;;;1.10;0.93;;;37.80;49.50;;;;;;8344099;28;20454;-82
2022/08/02 15:36:25;;;;;;;1.52;0.90;;;35.50;54.90;;;;;;8339599;28;20031;-80
2022/08/02 15:40:26;;;;;;;1.08;0.98;;;36.40;54.10;;;;;;8333327;28;20048;-80
2022/08/02 15:44:27;;;;;;;1.27;1.00;;;36.60;52.90;;;;;;8333855;28;20040;-80
2022/08/02 15:48:27;;;;;;;0.98;0.90;;;33.90;58.00;;;;;;8345658;28;20021;-80
2022/08/02 15:52:28;;;;;;;1.27;1.15;;;31.20;61.20;;;;;;8345242;28;20018;-80
2022/08/02 15:56:28;;;;;;;1.38;0.90;;;30.10;66.60;;;;;;8337584;28;20478;-80
2022/08/02 16:00:29;;;;;;;1.45;1.05;;;29.50;68.40;;;;;;8336158;28;20028;-80
2022/08/02 16:04:31;;;;;;;2.10;1.00;;;29.50;68.20;;;;;;8352203;28;20086;-80
2022/08/02 16:08:32;;;;;;;1.20;1.10;;;29.60;63.10;;;;;;8330429;28;20512;-80
2022/08/02 16:12:32;;;;;;;1.20;1.10;;;29.40;68.60;;;;;;8351532;28;20044;-80
2022/08/02 16:16:34;;;;;;;1.10;1.00;;;29.20;68.00;;;;;;8336838;28;20078;-79
2022/08/02 16:20:35;;;;;;;2.10;1.30;;;29.30;75.40;;;;;;8344752;28;20025;-79
2022/08/02 16:24:35;;;;;;;7.35;1.73;;;29.30;74.50;;;;;;8329901;28;20039;-81
2022/08/02 16:28:36;;;;;;;2.00;1.10;;;29.10;73.20;;;;;;8330462;28;20030;-80
2022/08/02 16:32:37;;;;;;;2.53;1.20;;;28.90;75.10;;;;;;8332397;28;20033;-79
2022/08/02 16:36:37;;;;;;;2.00;1.20;;;28.60;73.60;;;;;;8340516;28;20071;-80
2022/08/02 16:40:38;;;;;;;1.83;1.13;;;28.30;75.10;;;;;;8340765;28;20025;-79
2022/08/02 16:44:38;;;;;;;1.20;1.10;;;28.40;80.30;;;;;;8337865;28;20596;-79
2022/08/02 16:48:39;;;;;;;3.58;1.00;;;28.30;82.50;;;;;;8347800;28;20040;-80
2022/08/02 16:52:40;;;;;;;1.15;1.02;;;28.50;79.00;;;;;;8335328;28;20033;-80
2022/08/02 16:56:40;;;;;;;1.30;1.10;;;28.90;75.90;;;;;;8343754;28;20127;-80
2022/08/02 17:00:41;;;;;;;2.45;0.98;;;29.10;77.00;;;;;;8349053;28;20017;-80
2022/08/02 17:04:42;;;;;;;3.03;1.20;;;28.90;77.40;;;;;;8335669;28;20135;-80
2022/08/02 17:08:42;;;;;;;2.78;1.20;;;28.50;77.80;;;;;;8338421;28;20075;-80
2022/08/02 17:12:43;;;;;;;1.50;1.10;;;28.10;74.20;;;;;;8330825;28;20033;-79
2022/08/02 17:16:43;;;;;;;3.25;1.23;;;27.70;82.80;;;;;;8333649;28;20044;-79
2022/08/02 17:20:44;;;;;;;1.65;1.30;;;27.30;84.20;;;;;;8334872;28;20087;-80
2022/08/02 17:24:44;;;;;;;2.03;1.30;;;27.10;88.60;;;;;;8328814;28;20044;-79
2022/08/02 17:28:45;;;;;;;3.25;1.20;;;27.00;89.00;;;;;;8337650;28;20028;-80
2022/08/02 17:32:45;;;;;;;1.73;1.10;;;26.90;91.30;;;;;;8333080;28;20022;-79
2022/08/02 17:36:46;;;;;;;2.75;1.25;;;26.80;90.30;;;;;;8324732;28;20033;-79
2022/08/02 17:40:46;;;;;;;1.40;1.30;;;26.50;92.20;;;;;;8323533;28;20025;-79
2022/08/02 17:44:47;;;;;;;4.32;1.30;;;26.10;94.10;;;;;;8334085;28;20297;-80
2022/08/02 17:53:06;;;;;;;1.30;1.20;;;25.70;95.00;;;;;;8331836;28;20080;-79
2022/08/02 17:57:09;;;;;;;3.42;1.30;;;25.30;95.90;;;;;;8326878;28;20042;-79
2022/08/02 18:01:10;;;;;;;1.23;1.10;;;25.00;96.60;;;;;;8310545;28;20028;-79
2022/08/02 18:05:11;;;;;;;4.78;1.20;;;24.80;98.30;;;;;;8322128;28;20498;-80
2022/08/02 18:09:11;;;;;;;2.20;1.20;;;24.50;99.90;;;;;;8328113;28;20049;-79
2022/08/02 18:13:12;;;;;;;1.33;1.20;;;24.10;99.90;;;;;;8326856;28;20036;-79
2022/08/02 18:17:13;;;;;;;1.52;1.13;;;23.90;99.90;;;;;;8330737;28;20022;-79
2022/08/02 18:21:13;;;;;;;1.52;1.30;;;23.60;99.90;;;;;;8309055;28;20029;-81
2022/08/02 18:25:14;;;;;;;1.58;1.20;;;23.40;99.90;;;;;;8317889;28;20116;-79
2022/08/02 18:29:14;;;;;;;1.40;1.30;;;23.30;99.90;;;;;;8334104;28;20021;-79
2022/08/02 18:33:15;;;;;;;2.30;1.77;;;23.20;99.90;;;;;;8335558;28;20104;-80
2022/08/02 18:37:15;;;;;;;1.60;1.20;;;23.00;99.90;;;;;;8331950;28;20400;-79
2022/08/02 18:41:16;;;;;;;1.70;1.45;;;22.90;99.90;;;;;;8327656;28;20021;-79
2022/08/02 18:45:16;;;;;;;6.47;1.45;;;22.50;99.90;;;;;;8336832;28;20044;-79
2022/08/02 18:49:17;;;;;;;2.05;1.35;;;22.20;99.90;;;;;;8335135;28;20301;-79
2022/08/02 18:53:18;;;;;;;2.83;1.80;;;22.20;99.90;;;;;;8327951;28;20033;-79
2022/08/02 18:57:18;;;;;;;2.05;1.60;;;21.80;99.90;;;;;;8333125;28;20060;-79
2022/08/02 19:01:19;;;;;;;3.30;1.48;;;21.60;99.90;;;;;;8333470;28;20563;-82
2022/08/02 19:05:20;;;;;;;3.95;1.70;;;21.40;99.90;;;;;;8331265;28;20421;-82
2022/08/02 19:09:20;;;;;;;1.50;1.40;;;21.20;99.90;;;;;;8333524;28;20493;-81
2022/08/02 19:13:21;;;;;;;4.65;1.75;;;20.90;99.90;;;;;;8334178;28;20035;-82
2022/08/02 19:17:21;;;;;;;1.85;1.70;;;20.80;99.90;;;;;;8333585;28;20028;-82
2022/08/02 19:21:22;;;;;;;2.65;1.80;;;20.80;99.90;;;;;;8342388;28;20108;-81
2022/08/02 19:25:23;;;;;;;2.78;1.80;;;20.70;99.90;;;;;;8330980;22;20042;-82
2022/08/02 19:29:24;;;;;;;2.53;1.90;;;20.50;99.90;;;;;;8295668;28;20037;-82
2022/08/02 19:33:24;;;;;;;2.30;1.67;;;20.50;99.90;;;;;;8298122;28;20047;-82
2022/08/02 19:37:26;;;;;;;2.75;1.80;;;20.50;99.90;;;;;;8296711;28;20045;-82
2022/08/02 19:41:26;;;;;;;2.30;1.80;;;20.50;99.90;;;;;;8300404;28;20149;-85
2022/08/02 19:45:27;;;;;;;2.45;1.90;;;20.30;99.90;;;;;;8295679;28;20022;-81
2022/08/02 19:49:27;;;;;;;5.60;1.70;;;20.10;99.90;;;;;;8294965;28;20494;-82
2022/08/02 19:53:29;;;;;;;1.92;1.70;;;19.90;99.90;;;;;;8295754;28;20058;-84
2022/08/02 19:57:33;;;;;;;2.15;1.95;;;19.80;99.90;;;;;;8291616;28;20270;-84
2022/08/02 20:01:34;;;;;;;2.22;2.03;;;19.90;99.90;;;;;;8292227;28;20057;-84
2022/08/02 20:05:35;;;;;;;3.08;2.13;;;19.50;99.90;;;;;;8292660;28;20034;-84
2022/08/02 20:09:36;;;;;;;2.15;1.95;;;19.20;99.90;;;;;;8292767;28;20505;-84
2022/08/02 20:13:37;;;;;;;4.47;2.10;;;19.20;99.90;;;;;;8293513;28;20022;-84
2022/08/02 20:17:37;;;;;;;4.00;2.20;;;19.10;99.90;;;;;;8294713;28;20612;-84
2022/08/02 20:21:38;;;;;;;3.38;1.95;;;19.10;99.90;;;;;;8292058;28;20073;-84
2022/08/02 20:25:39;;;;;;;2.60;2.20;;;18.90;99.90;;;;;;8294123;28;20085;-84
2022/08/02 20:29:39;;;;;;;5.00;2.10;;;18.80;99.90;;;;;;8292713;28;20030;-84
2022/08/02 20:33:40;;;;;;;4.50;2.47;;;18.60;99.90;;;;;;8292379;28;20390;-85
2022/08/02 20:37:40;;;;;;;4.05;2.13;;;18.50;99.90;;;;;;8291359;28;20034;-85
2022/08/02 20:41:42;;;;;;;4.03;2.22;;;18.30;99.90;;;;;;8292130;28;20413;-85
2022/08/02 20:45:42;;;;;;;3.83;2.35;;;18.20;99.90;;;;;;8293897;28;20022;-85
2022/08/02 20:54:02;;;;;;;2.72;2.50;;;18.00;99.90;;;;;;8292659;28;20040;-84
2022/08/02 20:58:03;;;;;;;3.15;2.70;;;17.70;99.90;;;;;;8297001;28;20037;-85
2022/08/02 21:02:03;;;;;;;3.90;2.30;;;17.70;99.90;;;;;;8299541;28;20033;-84
2022/08/02 21:06:04;;;;;;;3.00;2.30;;;18.00;99.90;;;;;;8299994;28;20052;-84